createdAt,value
2022-11-15T00:07:58.667Z,0.58
2022-11-15T00:18:21.506Z,0.60
2022-11-15T00:28:44.206Z,0.54
2022-11-15T00:39:07.420Z,0.40
2022-11-15T00:49:29.596Z,0.47
2022-11-15T00:59:51.884Z,0.50
2022-11-15T01:10:14.275Z,0.39
2022-11-15T01:20:44.355Z,0.28
2022-11-15T01:31:13.592Z,0.22
2022-11-15T01:41:35.873Z,0.25
2022-11-15T01:52:00.231Z,0.21
2022-11-15T02:02:23.219Z,0.02
2022-11-15T02:12:47.314Z,-0.08
2022-11-15T02:23:39.844Z,-0.18
2022-11-15T02:34:07.025Z,-0.16
2022-11-15T02:44:38.736Z,-0.19
2022-11-15T02:55:02.924Z,-0.24
2022-11-15T03:05:43.805Z,-0.28
2022-11-15T03:16:29.914Z,-0.37
2022-11-15T03:26:55.621Z,-0.47
2022-11-15T03:37:22.495Z,-0.44
2022-11-15T03:47:55.424Z,-0.49
2022-11-15T03:58:17.881Z,-0.50
2022-11-15T04:08:40.303Z,-0.49
2022-11-15T04:19:21.835Z,-0.54
2022-11-15T04:29:44.323Z,-0.57
2022-11-15T04:40:07.638Z,-0.69
2022-11-15T04:50:30.237Z,-0.77
2022-11-15T05:00:53.510Z,-0.75
2022-11-15T05:11:16.243Z,-0.80
2022-11-15T05:21:39.378Z,-0.88
2022-11-15T05:32:02.075Z,-0.86
2022-11-15T05:42:25.563Z,-0.84
2022-11-15T05:52:48.829Z,-0.80
2022-11-15T06:03:12.447Z,-0.78
2022-11-15T06:13:35.509Z,-0.80
2022-11-15T06:23:58.000Z,-0.81
2022-11-15T06:34:20.291Z,-0.65
2022-11-15T06:44:43.298Z,-0.52
2022-11-15T06:55:06.571Z,-0.36
2022-11-15T07:05:29.595Z,-0.16
2022-11-15T07:15:52.010Z,0.14
2022-11-15T07:26:14.465Z,0.43
2022-11-15T07:36:37.710Z,0.85
2022-11-15T07:47:00.198Z,1.20
2022-11-15T07:57:23.232Z,1.64
2022-11-15T08:07:45.988Z,2.05
2022-11-15T08:18:13.113Z,2.28
2022-11-15T08:28:35.405Z,2.57
2022-11-15T08:38:57.792Z,2.94
2022-11-15T08:49:20.837Z,3.31
2022-11-15T08:59:44.845Z,3.82
2022-11-15T09:10:08.319Z,4.37
2022-11-15T09:20:30.626Z,4.92
2022-11-15T09:30:58.801Z,5.42
2022-11-15T09:41:30.151Z,6.00
2022-11-15T09:51:55.478Z,6.53
2022-11-15T10:02:47.467Z,6.97
2022-11-15T10:12:54.211Z,7.53
2022-11-15T10:23:02.463Z,8.26
2022-11-15T10:33:21.395Z,9.04
2022-11-15T10:43:27.536Z,9.65
2022-11-15T10:53:46.733Z,9.97
2022-11-15T11:04:10.333Z,10.20
2022-11-15T11:14:22.405Z,10.38
2022-11-15T11:24:46.948Z,10.67
2022-11-15T11:35:09.333Z,10.92
2022-11-15T11:45:25.287Z,11.13
2022-11-15T11:55:40.001Z,11.33
2022-11-15T12:05:48.398Z,11.54
2022-11-15T12:16:07.438Z,11.86
2022-11-15T12:26:20.374Z,12.29
2022-11-15T12:36:24.651Z,12.70
2022-11-15T12:46:31.530Z,12.96
2022-11-15T12:56:36.074Z,13.11
2022-11-15T13:06:47.900Z,13.12
2022-11-15T13:17:00.423Z,13.16
2022-11-15T13:27:20.998Z,13.03
2022-11-15T13:37:25.316Z,12.85
2022-11-15T13:47:31.035Z,12.71
2022-11-15T13:57:58.744Z,12.54
2022-11-15T14:08:22.362Z,12.23
2022-11-15T14:18:48.258Z,11.99
2022-11-15T14:28:52.612Z,11.84
2022-11-15T14:38:56.796Z,11.63
2022-11-15T14:49:01.076Z,11.27
2022-11-15T14:59:05.037Z,11.00
2022-11-15T15:09:09.017Z,10.77
2022-11-15T15:19:13.290Z,10.44
2022-11-15T15:29:17.165Z,10.17
2022-11-15T15:39:20.828Z,9.99
2022-11-15T15:49:25.210Z,9.79
2022-11-15T15:59:29.280Z,9.71
2022-11-15T16:09:51.981Z,9.60
2022-11-15T16:19:56.065Z,9.48
2022-11-15T16:30:00.083Z,9.30
2022-11-15T16:40:04.722Z,9.08
2022-11-15T16:50:24.558Z,9.00
2022-11-15T17:00:29.823Z,9.02
2022-11-15T17:10:34.759Z,9.03
2022-11-15T17:20:39.057Z,8.95
2022-11-15T17:30:44.322Z,8.84
2022-11-15T17:40:49.227Z,8.92
2022-11-15T17:51:05.349Z,8.96
2022-11-15T18:01:22.292Z,8.91
2022-11-15T18:11:30.568Z,8.91
2022-11-15T18:21:38.058Z,9.03
2022-11-15T18:31:47.420Z,8.87
2022-11-15T18:41:53.476Z,8.96
2022-11-15T18:51:58.985Z,8.86
2022-11-15T19:02:03.678Z,8.81
2022-11-15T19:12:09.218Z,8.72
2022-11-15T19:22:13.976Z,8.54
2022-11-15T19:32:20.719Z,8.34
2022-11-15T19:42:25.598Z,8.38
2022-11-15T19:52:30.797Z,8.37
2022-11-15T20:02:35.596Z,8.28
2022-11-15T20:12:40.184Z,8.41
2022-11-15T20:22:44.878Z,8.28
2022-11-15T20:32:58.152Z,8.25
2022-11-15T20:43:06.963Z,8.31
2022-11-15T20:53:17.859Z,8.26
2022-11-15T21:03:22.337Z,8.26
2022-11-15T21:13:28.013Z,8.46
2022-11-15T21:23:35.816Z,8.59
2022-11-15T21:33:40.058Z,8.68
2022-11-15T21:43:44.475Z,8.61
2022-11-15T21:53:48.241Z,8.56
2022-11-15T22:03:52.828Z,8.61
2022-11-15T22:13:58.705Z,8.47
2022-11-15T22:24:02.851Z,8.52
2022-11-15T22:34:07.311Z,8.42
2022-11-15T22:44:11.590Z,8.52
2022-11-15T22:54:15.868Z,8.63
2022-11-15T23:04:19.942Z,8.45
2022-11-15T23:14:23.920Z,8.41
2022-11-15T23:24:27.987Z,8.39
2022-11-15T23:34:32.697Z,8.37
2022-11-15T23:44:37.450Z,8.40
2022-11-15T23:54:42.058Z,8.45
